sensor_id;sensor_type;location;lat;lon;timestamp;P1;durP1;ratioP1;P2;durP2;ratioP2
15958;SDS011;8078;47.822;9.402;2023-02-23T00:01:21;61.63;;;31.23;;
15958;SDS011;8078;47.822;9.402;2023-02-23T00:03:55;65.33;;;33.60;;
15958;SDS011;8078;47.822;9.402;2023-02-23T00:06:23;63.70;;;34.00;;
15958;SDS011;8078;47.822;9.402;2023-02-23T00:08:50;73.77;;;36.53;;
15958;SDS011;8078;47.822;9.402;2023-02-23T00:11:16;77.17;;;37.83;;
15958;SDS011;8078;47.822;9.402;2023-02-23T00:13:44;72.77;;;36.53;;
15958;SDS011;8078;47.822;9.402;2023-02-23T00:16:15;82.83;;;39.63;;
15958;SDS011;8078;47.822;9.402;2023-02-23T00:18:43;89.93;;;39.53;;
15958;SDS011;8078;47.822;9.402;2023-02-23T00:21:25;98.10;;;41.77;;
15958;SDS011;8078;47.822;9.402;2023-02-23T00:24:01;89.03;;;38.60;;
15958;SDS011;8078;47.822;9.402;2023-02-23T00:26:33;105.40;;;40.93;;
15958;SDS011;8078;47.822;9.402;2023-02-23T00:29:00;101.73;;;42.00;;
15958;SDS011;8078;47.822;9.402;2023-02-23T00:31:27;131.03;;;43.00;;
15958;SDS011;8078;47.822;9.402;2023-02-23T00:33:54;367.87;;;60.37;;
15958;SDS011;8078;47.822;9.402;2023-02-23T00:36:25;126.90;;;45.07;;
15958;SDS011;8078;47.822;9.402;2023-02-23T00:38:52;280.93;;;54.03;;
15958;SDS011;8078;47.822;9.402;2023-02-23T00:41:19;596.97;;;76.90;;
15958;SDS011;8078;47.822;9.402;2023-02-23T00:43:52;339.97;;;57.73;;
15958;SDS011;8078;47.822;9.402;2023-02-23T00:46:20;559.40;;;73.47;;
15958;SDS011;8078;47.822;9.402;2023-02-23T00:48:48;640.53;;;83.83;;
15958;SDS011;8078;47.822;9.402;2023-02-23T00:51:14;808.83;;;96.40;;
15958;SDS011;8078;47.822;9.402;2023-02-23T00:53:41;668.40;;;85.40;;
15958;SDS011;8078;47.822;9.402;2023-02-23T00:56:09;688.70;;;81.93;;
15958;SDS011;8078;47.822;9.402;2023-02-23T00:58:36;802.60;;;100.47;;
15958;SDS011;8078;47.822;9.402;2023-02-23T01:01:06;634.83;;;82.13;;
15958;SDS011;8078;47.822;9.402;2023-02-23T01:03:32;397.00;;;62.53;;
15958;SDS011;8078;47.822;9.402;2023-02-23T01:05:59;718.43;;;87.40;;
15958;SDS011;8078;47.822;9.402;2023-02-23T01:08:29;571.47;;;81.27;;
15958;SDS011;8078;47.822;9.402;2023-02-23T01:10:56;888.10;;;106.07;;
15958;SDS011;8078;47.822;9.402;2023-02-23T01:13:22;1003.43;;;112.63;;
15958;SDS011;8078;47.822;9.402;2023-02-23T01:15:48;774.50;;;92.97;;
15958;SDS011;8078;47.822;9.402;2023-02-23T01:18:15;584.60;;;75.57;;
15958;SDS011;8078;47.822;9.402;2023-02-23T01:20:41;427.83;;;64.23;;
15958;SDS011;8078;47.822;9.402;2023-02-23T01:23:09;320.33;;;54.13;;
15958;SDS011;8078;47.822;9.402;2023-02-23T01:25:37;265.70;;;49.23;;
15958;SDS011;8078;47.822;9.402;2023-02-23T01:28:03;724.80;;;88.80;;
15958;SDS011;8078;47.822;9.402;2023-02-23T01:30:29;487.67;;;63.27;;
15958;SDS011;8078;47.822;9.402;2023-02-23T01:32:55;518.20;;;68.20;;
15958;SDS011;8078;47.822;9.402;2023-02-23T01:35:21;701.27;;;81.23;;
15958;SDS011;8078;47.822;9.402;2023-02-23T01:37:46;933.50;;;97.17;;
15958;SDS011;8078;47.822;9.402;2023-02-23T01:40:15;1091.80;;;112.40;;
15958;SDS011;8078;47.822;9.402;2023-02-23T01:42:53;1049.47;;;114.17;;
15958;SDS011;8078;47.822;9.402;2023-02-23T01:45:40;920.47;;;111.37;;
15958;SDS011;8078;47.822;9.402;2023-02-23T01:48:08;715.63;;;88.50;;
15958;SDS011;8078;47.822;9.402;2023-02-23T01:50:44;958.63;;;111.70;;
15958;SDS011;8078;47.822;9.402;2023-02-23T01:53:17;1589.83;;;177.60;;
15958;SDS011;8078;47.822;9.402;2023-02-23T01:55:46;1016.20;;;116.27;;
15958;SDS011;8078;47.822;9.402;2023-02-23T01:58:19;893.50;;;106.90;;
15958;SDS011;8078;47.822;9.402;2023-02-23T02:00:57;1170.40;;;130.80;;
15958;SDS011;8078;47.822;9.402;2023-02-23T02:03:28;1249.00;;;129.87;;
15958;SDS011;8078;47.822;9.402;2023-02-23T02:06:00;966.27;;;110.70;;
15958;SDS011;8078;47.822;9.402;2023-02-23T02:08:28;1198.90;;;125.27;;
15958;SDS011;8078;47.822;9.402;2023-02-23T02:10:55;1183.40;;;140.03;;
15958;SDS011;8078;47.822;9.402;2023-02-23T02:13:26;1222.17;;;128.03;;
15958;SDS011;8078;47.822;9.402;2023-02-23T02:16:16;1172.83;;;130.13;;
15958;SDS011;8078;47.822;9.402;2023-02-23T02:18:58;1515.33;;;157.90;;
15958;SDS011;8078;47.822;9.402;2023-02-23T02:27:05;1211.23;;;123.60;;
15958;SDS011;8078;47.822;9.402;2023-02-23T02:38:33;1288.30;;;127.73;;
15958;SDS011;8078;47.822;9.402;2023-02-23T02:41:50;1414.27;;;156.27;;
15958;SDS011;8078;47.822;9.402;2023-02-23T02:44:28;1655.23;;;170.27;;
15958;SDS011;8078;47.822;9.402;2023-02-23T02:47:01;1410.17;;;145.97;;
15958;SDS011;8078;47.822;9.402;2023-02-23T02:49:35;1562.03;;;159.57;;
15958;SDS011;8078;47.822;9.402;2023-02-23T02:52:18;1555.60;;;149.23;;
15958;SDS011;8078;47.822;9.402;2023-02-23T02:54:52;1500.93;;;158.83;;
15958;SDS011;8078;47.822;9.402;2023-02-23T02:57:21;1615.93;;;181.70;;
15958;SDS011;8078;47.822;9.402;2023-02-23T02:59:50;1544.07;;;155.93;;
15958;SDS011;8078;47.822;9.402;2023-02-23T03:02:38;1568.77;;;166.23;;
15958;SDS011;8078;47.822;9.402;2023-02-23T03:05:24;1229.77;;;128.47;;
15958;SDS011;8078;47.822;9.402;2023-02-23T03:08:32;1468.03;;;143.83;;
15958;SDS011;8078;47.822;9.402;2023-02-23T03:11:58;1402.80;;;133.87;;
15958;SDS011;8078;47.822;9.402;2023-02-23T03:17:54;1212.00;;;116.97;;
15958;SDS011;8078;47.822;9.402;2023-02-23T03:21:05;1291.07;;;141.90;;
15958;SDS011;8078;47.822;9.402;2023-02-23T03:24:10;1458.13;;;149.03;;
15958;SDS011;8078;47.822;9.402;2023-02-23T03:27:00;1309.27;;;127.80;;
15958;SDS011;8078;47.822;9.402;2023-02-23T03:29:57;1165.53;;;108.43;;
15958;SDS011;8078;47.822;9.402;2023-02-23T03:32:48;1065.50;;;102.10;;
15958;SDS011;8078;47.822;9.402;2023-02-23T03:41:39;979.17;;;98.40;;
15958;SDS011;8078;47.822;9.402;2023-02-23T03:44:29;1031.33;;;97.37;;
15958;SDS011;8078;47.822;9.402;2023-02-23T03:47:22;950.50;;;101.57;;
15958;SDS011;8078;47.822;9.402;2023-02-23T03:50:12;982.70;;;99.97;;
15958;SDS011;8078;47.822;9.402;2023-02-23T03:53:03;997.83;;;96.80;;
15958;SDS011;8078;47.822;9.402;2023-02-23T03:55:50;1158.20;;;124.60;;
15958;SDS011;8078;47.822;9.402;2023-02-23T03:58:38;1161.67;;;118.90;;
15958;SDS011;8078;47.822;9.402;2023-02-23T04:01:26;1101.67;;;106.00;;
15958;SDS011;8078;47.822;9.402;2023-02-23T04:04:11;1194.63;;;120.27;;
15958;SDS011;8078;47.822;9.402;2023-02-23T04:06:56;1001.70;;;99.30;;
15958;SDS011;8078;47.822;9.402;2023-02-23T04:09:43;1330.00;;;125.07;;
15958;SDS011;8078;47.822;9.402;2023-02-23T04:15:36;1598.53;;;151.07;;
15958;SDS011;8078;47.822;9.402;2023-02-23T04:18:07;1373.87;;;138.73;;
15958;SDS011;8078;47.822;9.402;2023-02-23T04:20:37;1355.77;;;136.53;;
15958;SDS011;8078;47.822;9.402;2023-02-23T04:23:03;1448.87;;;145.47;;
15958;SDS011;8078;47.822;9.402;2023-02-23T04:25:29;1876.43;;;153.80;;
15958;SDS011;8078;47.822;9.402;2023-02-23T04:27:54;1646.50;;;173.37;;
15958;SDS011;8078;47.822;9.402;2023-02-23T04:30:20;1770.00;;;179.90;;
15958;SDS011;8078;47.822;9.402;2023-02-23T04:32:49;1854.90;;;181.93;;
15958;SDS011;8078;47.822;9.402;2023-02-23T04:35:14;1600.20;;;159.83;;
15958;SDS011;8078;47.822;9.402;2023-02-23T04:37:40;1622.80;;;165.13;;
15958;SDS011;8078;47.822;9.402;2023-02-23T04:40:06;1555.40;;;152.53;;
15958;SDS011;8078;47.822;9.402;2023-02-23T04:42:32;1541.57;;;142.10;;
15958;SDS011;8078;47.822;9.402;2023-02-23T04:44:57;1385.97;;;143.53;;
15958;SDS011;8078;47.822;9.402;2023-02-23T04:47:23;1451.13;;;142.97;;
15958;SDS011;8078;47.822;9.402;2023-02-23T04:49:49;1376.53;;;133.03;;
15958;SDS011;8078;47.822;9.402;2023-02-23T04:52:14;1391.73;;;134.97;;
15958;SDS011;8078;47.822;9.402;2023-02-23T04:54:40;1617.23;;;147.33;;
15958;SDS011;8078;47.822;9.402;2023-02-23T04:57:06;1491.70;;;136.07;;
15958;SDS011;8078;47.822;9.402;2023-02-23T04:59:31;1370.83;;;139.43;;
15958;SDS011;8078;47.822;9.402;2023-02-23T05:01:58;1325.87;;;137.83;;
15958;SDS011;8078;47.822;9.402;2023-02-23T05:04:23;1383.20;;;141.53;;
15958;SDS011;8078;47.822;9.402;2023-02-23T05:06:49;1391.17;;;144.47;;
15958;SDS011;8078;47.822;9.402;2023-02-23T05:09:14;1441.63;;;152.97;;
15958;SDS011;8078;47.822;9.402;2023-02-23T05:11:40;1682.23;;;154.23;;
15958;SDS011;8078;47.822;9.402;2023-02-23T05:14:06;1186.80;;;119.60;;
15958;SDS011;8078;47.822;9.402;2023-02-23T05:16:33;1136.83;;;107.33;;
15958;SDS011;8078;47.822;9.402;2023-02-23T05:18:58;1180.43;;;118.97;;
15958;SDS011;8078;47.822;9.402;2023-02-23T05:21:24;1241.87;;;121.53;;
15958;SDS011;8078;47.822;9.402;2023-02-23T05:23:49;1185.43;;;111.30;;
15958;SDS011;8078;47.822;9.402;2023-02-23T05:26:15;1185.67;;;121.77;;
15958;SDS011;8078;47.822;9.402;2023-02-23T05:28:41;1152.40;;;111.60;;
15958;SDS011;8078;47.822;9.402;2023-02-23T05:31:08;1189.20;;;118.43;;
15958;SDS011;8078;47.822;9.402;2023-02-23T05:33:34;1103.93;;;110.33;;
15958;SDS011;8078;47.822;9.402;2023-02-23T05:36:07;1062.93;;;109.83;;
15958;SDS011;8078;47.822;9.402;2023-02-23T05:38:41;1251.50;;;124.80;;
15958;SDS011;8078;47.822;9.402;2023-02-23T05:41:08;1000.07;;;91.90;;
15958;SDS011;8078;47.822;9.402;2023-02-23T05:43:35;1112.13;;;112.10;;
15958;SDS011;8078;47.822;9.402;2023-02-23T05:46:08;1112.50;;;103.20;;
15958;SDS011;8078;47.822;9.402;2023-02-23T05:48:35;1007.50;;;95.83;;
15958;SDS011;8078;47.822;9.402;2023-02-23T05:51:02;1100.47;;;104.07;;
15958;SDS011;8078;47.822;9.402;2023-02-23T05:53:32;1354.20;;;114.97;;
15958;SDS011;8078;47.822;9.402;2023-02-23T05:55:57;1053.90;;;105.73;;
15958;SDS011;8078;47.822;9.402;2023-02-23T05:58:23;1135.83;;;112.33;;
15958;SDS011;8078;47.822;9.402;2023-02-23T06:00:49;1004.90;;;101.20;;
15958;SDS011;8078;47.822;9.402;2023-02-23T06:03:15;1067.67;;;102.03;;
15958;SDS011;8078;47.822;9.402;2023-02-23T06:05:41;1017.63;;;96.80;;
15958;SDS011;8078;47.822;9.402;2023-02-23T06:08:07;1309.40;;;126.53;;
15958;SDS011;8078;47.822;9.402;2023-02-23T06:10:32;1166.67;;;111.83;;
15958;SDS011;8078;47.822;9.402;2023-02-23T06:12:58;1171.63;;;117.80;;
15958;SDS011;8078;47.822;9.402;2023-02-23T06:15:24;1012.33;;;99.10;;
15958;SDS011;8078;47.822;9.402;2023-02-23T06:17:50;957.27;;;93.63;;
15958;SDS011;8078;47.822;9.402;2023-02-23T06:20:15;1035.13;;;107.13;;
15958;SDS011;8078;47.822;9.402;2023-02-23T06:22:41;1169.53;;;122.07;;
15958;SDS011;8078;47.822;9.402;2023-02-23T06:25:07;1004.23;;;103.67;;
15958;SDS011;8078;47.822;9.402;2023-02-23T06:27:36;924.73;;;92.57;;
15958;SDS011;8078;47.822;9.402;2023-02-23T06:30:03;860.27;;;86.80;;
15958;SDS011;8078;47.822;9.402;2023-02-23T06:32:29;1009.27;;;108.40;;
15958;SDS011;8078;47.822;9.402;2023-02-23T06:34:55;1207.80;;;127.37;;
15958;SDS011;8078;47.822;9.402;2023-02-23T06:37:20;1033.40;;;110.77;;
15958;SDS011;8078;47.822;9.402;2023-02-23T06:39:46;1087.80;;;114.17;;
15958;SDS011;8078;47.822;9.402;2023-02-23T06:42:12;1050.40;;;103.07;;
15958;SDS011;8078;47.822;9.402;2023-02-23T06:44:37;1142.30;;;115.83;;
15958;SDS011;8078;47.822;9.402;2023-02-23T06:47:04;1127.83;;;118.87;;
15958;SDS011;8078;47.822;9.402;2023-02-23T06:49:30;1264.83;;;132.23;;
15958;SDS011;8078;47.822;9.402;2023-02-23T06:51:55;1204.23;;;123.33;;
15958;SDS011;8078;47.822;9.402;2023-02-23T06:54:22;1003.73;;;101.33;;
15958;SDS011;8078;47.822;9.402;2023-02-23T06:56:48;1062.40;;;111.73;;
15958;SDS011;8078;47.822;9.402;2023-02-23T06:59:14;1076.50;;;122.87;;
15958;SDS011;8078;47.822;9.402;2023-02-23T07:01:40;1186.80;;;122.60;;
15958;SDS011;8078;47.822;9.402;2023-02-23T07:04:08;1008.57;;;102.93;;
15958;SDS011;8078;47.822;9.402;2023-02-23T07:06:34;1220.43;;;131.10;;
15958;SDS011;8078;47.822;9.402;2023-02-23T07:09:00;1326.90;;;136.40;;
15958;SDS011;8078;47.822;9.402;2023-02-23T07:11:26;1237.67;;;134.10;;
15958;SDS011;8078;47.822;9.402;2023-02-23T07:13:51;1387.20;;;143.63;;
15958;SDS011;8078;47.822;9.402;2023-02-23T07:16:17;1217.40;;;135.27;;
15958;SDS011;8078;47.822;9.402;2023-02-23T07:18:42;1226.90;;;132.47;;
15958;SDS011;8078;47.822;9.402;2023-02-23T07:21:08;1139.37;;;113.27;;
15958;SDS011;8078;47.822;9.402;2023-02-23T07:23:33;1209.30;;;131.40;;
15958;SDS011;8078;47.822;9.402;2023-02-23T07:25:59;1240.00;;;132.27;;
15958;SDS011;8078;47.822;9.402;2023-02-23T07:28:24;1110.33;;;114.87;;
15958;SDS011;8078;47.822;9.402;2023-02-23T07:30:55;1065.27;;;105.00;;
15958;SDS011;8078;47.822;9.402;2023-02-23T07:33:24;1136.93;;;113.53;;
15958;SDS011;8078;47.822;9.402;2023-02-23T07:35:50;1112.03;;;107.77;;
15958;SDS011;8078;47.822;9.402;2023-02-23T07:38:16;996.30;;;109.23;;
15958;SDS011;8078;47.822;9.402;2023-02-23T07:40:42;901.30;;;97.50;;
15958;SDS011;8078;47.822;9.402;2023-02-23T07:43:08;958.43;;;99.47;;
15958;SDS011;8078;47.822;9.402;2023-02-23T07:45:33;982.70;;;103.63;;
15958;SDS011;8078;47.822;9.402;2023-02-23T07:47:59;925.23;;;97.60;;
15958;SDS011;8078;47.822;9.402;2023-02-23T07:50:25;797.00;;;86.30;;
15958;SDS011;8078;47.822;9.402;2023-02-23T07:52:51;767.60;;;75.57;;
15958;SDS011;8078;47.822;9.402;2023-02-23T07:55:16;1014.47;;;92.87;;
15958;SDS011;8078;47.822;9.402;2023-02-23T07:57:42;914.80;;;88.87;;
15958;SDS011;8078;47.822;9.402;2023-02-23T08:00:09;893.00;;;91.23;;
15958;SDS011;8078;47.822;9.402;2023-02-23T08:02:35;1028.07;;;94.90;;
15958;SDS011;8078;47.822;9.402;2023-02-23T08:05:00;1054.23;;;93.47;;
15958;SDS011;8078;47.822;9.402;2023-02-23T08:07:26;857.13;;;82.97;;
15958;SDS011;8078;47.822;9.402;2023-02-23T08:09:52;781.13;;;74.00;;
15958;SDS011;8078;47.822;9.402;2023-02-23T08:12:17;716.47;;;66.60;;
15958;SDS011;8078;47.822;9.402;2023-02-23T08:14:43;482.83;;;52.90;;
15958;SDS011;8078;47.822;9.402;2023-02-23T08:17:09;597.53;;;56.60;;
15958;SDS011;8078;47.822;9.402;2023-02-23T08:19:35;596.17;;;52.37;;
15958;SDS011;8078;47.822;9.402;2023-02-23T08:22:01;661.43;;;53.90;;
15958;SDS011;8078;47.822;9.402;2023-02-23T08:24:28;564.90;;;48.47;;
15958;SDS011;8078;47.822;9.402;2023-02-23T08:26:55;462.13;;;41.60;;
15958;SDS011;8078;47.822;9.402;2023-02-23T08:29:21;631.43;;;47.63;;
15958;SDS011;8078;47.822;9.402;2023-02-23T08:31:47;454.67;;;38.73;;
15958;SDS011;8078;47.822;9.402;2023-02-23T08:34:15;474.30;;;37.97;;
15958;SDS011;8078;47.822;9.402;2023-02-23T08:36:41;437.73;;;38.83;;
15958;SDS011;8078;47.822;9.402;2023-02-23T08:39:09;446.77;;;36.30;;
15958;SDS011;8078;47.822;9.402;2023-02-23T08:41:36;433.13;;;35.30;;
15958;SDS011;8078;47.822;9.402;2023-02-23T08:44:02;406.60;;;33.63;;
15958;SDS011;8078;47.822;9.402;2023-02-23T08:46:27;283.70;;;29.10;;
15958;SDS011;8078;47.822;9.402;2023-02-23T08:48:54;306.00;;;29.30;;
15958;SDS011;8078;47.822;9.402;2023-02-23T08:51:20;78.50;;;21.20;;
15958;SDS011;8078;47.822;9.402;2023-02-23T08:53:46;92.13;;;22.43;;
15958;SDS011;8078;47.822;9.402;2023-02-23T08:56:11;68.67;;;21.67;;
15958;SDS011;8078;47.822;9.402;2023-02-23T08:58:37;91.67;;;22.73;;
15958;SDS011;8078;47.822;9.402;2023-02-23T09:01:03;102.73;;;23.30;;
15958;SDS011;8078;47.822;9.402;2023-02-23T09:03:29;240.97;;;28.37;;
15958;SDS011;8078;47.822;9.402;2023-02-23T09:06:04;59.10;;;22.83;;
15958;SDS011;8078;47.822;9.402;2023-02-23T09:08:32;51.50;;;21.00;;
15958;SDS011;8078;47.822;9.402;2023-02-23T09:10:58;67.63;;;21.63;;
15958;SDS011;8078;47.822;9.402;2023-02-23T09:13:23;44.27;;;19.47;;
15958;SDS011;8078;47.822;9.402;2023-02-23T09:15:49;37.03;;;18.00;;
15958;SDS011;8078;47.822;9.402;2023-02-23T09:18:14;31.87;;;17.40;;
15958;SDS011;8078;47.822;9.402;2023-02-23T09:20:41;32.60;;;17.20;;
15958;SDS011;8078;47.822;9.402;2023-02-23T09:23:09;30.53;;;16.90;;
15958;SDS011;8078;47.822;9.402;2023-02-23T09:25:41;31.60;;;16.90;;
15958;SDS011;8078;47.822;9.402;2023-02-23T09:28:09;27.10;;;16.10;;
15958;SDS011;8078;47.822;9.402;2023-02-23T09:30:36;27.73;;;16.07;;
15958;SDS011;8078;47.822;9.402;2023-02-23T09:33:02;25.37;;;14.67;;
15958;SDS011;8078;47.822;9.402;2023-02-23T09:35:28;26.67;;;15.03;;
15958;SDS011;8078;47.822;9.402;2023-02-23T09:37:54;25.57;;;15.63;;
15958;SDS011;8078;47.822;9.402;2023-02-23T09:42:51;23.67;;;15.07;;
15958;SDS011;8078;47.822;9.402;2023-02-23T09:45:30;29.70;;;16.57;;
15958;SDS011;8078;47.822;9.402;2023-02-23T09:50:29;32.60;;;18.47;;
15958;SDS011;8078;47.822;9.402;2023-02-23T09:52:58;34.07;;;20.27;;
15958;SDS011;8078;47.822;9.402;2023-02-23T09:55:27;39.23;;;20.67;;
15958;SDS011;8078;47.822;9.402;2023-02-23T09:57:54;44.40;;;22.03;;
15958;SDS011;8078;47.822;9.402;2023-02-23T10:00:24;44.97;;;23.07;;
15958;SDS011;8078;47.822;9.402;2023-02-23T10:03:07;38.33;;;21.40;;
15958;SDS011;8078;47.822;9.402;2023-02-23T10:05:41;39.50;;;21.17;;
15958;SDS011;8078;47.822;9.402;2023-02-23T10:08:36;41.43;;;21.23;;
15958;SDS011;8078;47.822;9.402;2023-02-23T10:14:22;37.23;;;20.30;;
15958;SDS011;8078;47.822;9.402;2023-02-23T10:20:08;36.47;;;19.37;;
15958;SDS011;8078;47.822;9.402;2023-02-23T10:22:52;37.17;;;18.70;;
15958;SDS011;8078;47.822;9.402;2023-02-23T10:25:25;36.47;;;21.23;;
15958;SDS011;8078;47.822;9.402;2023-02-23T10:27:54;42.27;;;21.93;;
15958;SDS011;8078;47.822;9.402;2023-02-23T10:35:46;41.30;;;20.33;;
15958;SDS011;8078;47.822;9.402;2023-02-23T10:38:16;34.33;;;19.03;;
15958;SDS011;8078;47.822;9.402;2023-02-23T10:40:43;33.77;;;19.33;;
15958;SDS011;8078;47.822;9.402;2023-02-23T10:43:12;30.00;;;16.90;;
15958;SDS011;8078;47.822;9.402;2023-02-23T10:45:40;26.63;;;16.57;;
15958;SDS011;8078;47.822;9.402;2023-02-23T10:48:22;28.70;;;15.20;;
15958;SDS011;8078;47.822;9.402;2023-02-23T10:50:51;27.10;;;15.17;;
15958;SDS011;8078;47.822;9.402;2023-02-23T10:53:29;26.73;;;15.17;;
15958;SDS011;8078;47.822;9.402;2023-02-23T10:56:00;25.60;;;14.83;;
15958;SDS011;8078;47.822;9.402;2023-02-23T10:58:29;23.57;;;13.40;;
15958;SDS011;8078;47.822;9.402;2023-02-23T11:01:03;25.63;;;14.40;;
15958;SDS011;8078;47.822;9.402;2023-02-23T11:06:10;25.53;;;13.70;;
15958;SDS011;8078;47.822;9.402;2023-02-23T11:08:55;21.67;;;13.30;;
15958;SDS011;8078;47.822;9.402;2023-02-23T11:11:25;28.10;;;13.53;;
15958;SDS011;8078;47.822;9.402;2023-02-23T11:13:52;21.10;;;13.83;;
15958;SDS011;8078;47.822;9.402;2023-02-23T11:16:20;19.47;;;12.67;;
15958;SDS011;8078;47.822;9.402;2023-02-23T11:18:53;24.97;;;12.83;;
15958;SDS011;8078;47.822;9.402;2023-02-23T11:21:24;20.83;;;12.57;;
15958;SDS011;8078;47.822;9.402;2023-02-23T11:23:53;17.90;;;10.27;;
15958;SDS011;8078;47.822;9.402;2023-02-23T11:26:27;18.50;;;10.32;;
15958;SDS011;8078;47.822;9.402;2023-02-23T11:29:01;16.38;;;10.15;;
15958;SDS011;8078;47.822;9.402;2023-02-23T11:31:35;16.00;;;9.73;;
15958;SDS011;8078;47.822;9.402;2023-02-23T11:34:03;17.70;;;10.47;;
15958;SDS011;8078;47.822;9.402;2023-02-23T11:36:31;19.67;;;10.67;;
15958;SDS011;8078;47.822;9.402;2023-02-23T11:41:29;22.27;;;10.00;;
15958;SDS011;8078;47.822;9.402;2023-02-23T11:43:57;18.77;;;10.23;;
15958;SDS011;8078;47.822;9.402;2023-02-23T11:46:24;16.00;;;8.82;;
15958;SDS011;8078;47.822;9.402;2023-02-23T11:51:32;15.50;;;8.73;;
15958;SDS011;8078;47.822;9.402;2023-02-23T11:54:01;17.83;;;8.83;;
15958;SDS011;8078;47.822;9.402;2023-02-23T11:56:28;14.77;;;8.80;;
15958;SDS011;8078;47.822;9.402;2023-02-23T11:58:58;16.02;;;9.07;;
15958;SDS011;8078;47.822;9.402;2023-02-23T12:01:36;16.80;;;9.07;;
15958;SDS011;8078;47.822;9.402;2023-02-23T12:04:08;20.67;;;9.70;;
15958;SDS011;8078;47.822;9.402;2023-02-23T12:06:47;16.20;;;10.37;;
15958;SDS011;8078;47.822;9.402;2023-02-23T12:09:23;17.60;;;9.97;;
15958;SDS011;8078;47.822;9.402;2023-02-23T12:11:54;18.40;;;10.93;;
15958;SDS011;8078;47.822;9.402;2023-02-23T12:14:37;15.70;;;9.43;;
15958;SDS011;8078;47.822;9.402;2023-02-23T12:17:23;15.03;;;9.03;;
15958;SDS011;8078;47.822;9.402;2023-02-23T12:20:31;14.63;;;8.77;;
15958;SDS011;8078;47.822;9.402;2023-02-23T12:23:02;21.60;;;9.13;;
15958;SDS011;8078;47.822;9.402;2023-02-23T12:28:17;20.77;;;9.57;;
15958;SDS011;8078;47.822;9.402;2023-02-23T12:33:43;16.97;;;8.27;;
15958;SDS011;8078;47.822;9.402;2023-02-23T12:39:02;16.33;;;8.52;;
15958;SDS011;8078;47.822;9.402;2023-02-23T12:41:44;13.48;;;7.82;;
15958;SDS011;8078;47.822;9.402;2023-02-23T12:47:02;11.60;;;7.00;;
15958;SDS011;8078;47.822;9.402;2023-02-23T12:49:43;10.38;;;6.95;;
15958;SDS011;8078;47.822;9.402;2023-02-23T12:52:24;10.68;;;6.43;;
15958;SDS011;8078;47.822;9.402;2023-02-23T12:54:57;12.75;;;7.10;;
15958;SDS011;8078;47.822;9.402;2023-02-23T13:03:34;16.45;;;6.28;;
15958;SDS011;8078;47.822;9.402;2023-02-23T13:06:38;11.98;;;5.95;;
15958;SDS011;8078;47.822;9.402;2023-02-23T13:18:23;14.23;;;8.07;;
15958;SDS011;8078;47.822;9.402;2023-02-23T13:31:39;15.57;;;6.65;;
15958;SDS011;8078;47.822;9.402;2023-02-23T13:34:10;14.82;;;7.53;;
15958;SDS011;8078;47.822;9.402;2023-02-23T13:36:40;13.10;;;6.53;;
15958;SDS011;8078;47.822;9.402;2023-02-23T13:39:18;19.65;;;7.47;;
15958;SDS011;8078;47.822;9.402;2023-02-23T13:44:36;11.93;;;6.00;;
15958;SDS011;8078;47.822;9.402;2023-02-23T13:50:00;13.95;;;7.03;;
15958;SDS011;8078;47.822;9.402;2023-02-23T13:52:35;12.45;;;7.32;;
15958;SDS011;8078;47.822;9.402;2023-02-23T13:57:50;10.18;;;6.10;;
15958;SDS011;8078;47.822;9.402;2023-02-23T14:00:22;14.70;;;7.00;;
15958;SDS011;8078;47.822;9.402;2023-02-23T14:02:48;11.98;;;6.82;;
15958;SDS011;8078;47.822;9.402;2023-02-23T14:05:24;15.30;;;7.07;;
15958;SDS011;8078;47.822;9.402;2023-02-23T14:07:52;9.48;;;6.20;;
15958;SDS011;8078;47.822;9.402;2023-02-23T14:10:24;17.05;;;6.70;;
15958;SDS011;8078;47.822;9.402;2023-02-23T14:20:54;13.38;;;6.78;;
15958;SDS011;8078;47.822;9.402;2023-02-23T14:23:49;15.40;;;6.88;;
15958;SDS011;8078;47.822;9.402;2023-02-23T14:31:56;14.45;;;6.50;;
15958;SDS011;8078;47.822;9.402;2023-02-23T14:34:47;12.02;;;6.22;;
15958;SDS011;8078;47.822;9.402;2023-02-23T14:37:23;13.00;;;5.93;;
15958;SDS011;8078;47.822;9.402;2023-02-23T14:39:49;9.57;;;6.18;;
15958;SDS011;8078;47.822;9.402;2023-02-23T14:42:20;10.10;;;5.85;;
15958;SDS011;8078;47.822;9.402;2023-02-23T14:44:48;11.43;;;6.10;;
15958;SDS011;8078;47.822;9.402;2023-02-23T14:47:17;7.70;;;5.15;;
15958;SDS011;8078;47.822;9.402;2023-02-23T14:49:51;9.07;;;5.63;;
15958;SDS011;8078;47.822;9.402;2023-02-23T14:52:22;12.40;;;5.47;;
15958;SDS011;8078;47.822;9.402;2023-02-23T14:54:49;11.18;;;5.63;;
15958;SDS011;8078;47.822;9.402;2023-02-23T14:57:16;13.77;;;6.78;;
15958;SDS011;8078;47.822;9.402;2023-02-23T14:59:55;11.23;;;5.95;;
15958;SDS011;8078;47.822;9.402;2023-02-23T15:02:26;14.88;;;6.57;;
15958;SDS011;8078;47.822;9.402;2023-02-23T15:04:54;12.35;;;5.40;;
15958;SDS011;8078;47.822;9.402;2023-02-23T15:07:29;9.93;;;5.85;;
15958;SDS011;8078;47.822;9.402;2023-02-23T15:09:56;7.97;;;5.30;;
15958;SDS011;8078;47.822;9.402;2023-02-23T15:12:24;10.90;;;5.55;;
15958;SDS011;8078;47.822;9.402;2023-02-23T15:14:55;8.38;;;5.57;;
15958;SDS011;8078;47.822;9.402;2023-02-23T15:17:25;8.93;;;5.32;;
15958;SDS011;8078;47.822;9.402;2023-02-23T15:19:55;15.05;;;5.90;;
15958;SDS011;8078;47.822;9.402;2023-02-23T15:22:27;10.65;;;5.85;;
15958;SDS011;8078;47.822;9.402;2023-02-23T15:25:07;12.25;;;6.00;;
15958;SDS011;8078;47.822;9.402;2023-02-23T15:27:40;14.68;;;6.03;;
15958;SDS011;8078;47.822;9.402;2023-02-23T15:30:24;12.32;;;5.70;;
15958;SDS011;8078;47.822;9.402;2023-02-23T15:33:01;11.02;;;5.35;;
15958;SDS011;8078;47.822;9.402;2023-02-23T15:35:28;11.73;;;6.38;;
15958;SDS011;8078;47.822;9.402;2023-02-23T15:37:55;13.32;;;6.57;;
15958;SDS011;8078;47.822;9.402;2023-02-23T15:40:24;11.88;;;6.43;;
15958;SDS011;8078;47.822;9.402;2023-02-23T15:42:54;10.95;;;6.03;;
15958;SDS011;8078;47.822;9.402;2023-02-23T15:48:04;11.65;;;6.93;;
15958;SDS011;8078;47.822;9.402;2023-02-23T15:50:33;12.48;;;6.97;;
15958;SDS011;8078;47.822;9.402;2023-02-23T15:53:05;17.23;;;8.15;;
15958;SDS011;8078;47.822;9.402;2023-02-23T15:55:57;14.63;;;7.55;;
15958;SDS011;8078;47.822;9.402;2023-02-23T15:58:31;14.00;;;7.68;;
15958;SDS011;8078;47.822;9.402;2023-02-23T16:01:10;13.32;;;6.78;;
15958;SDS011;8078;47.822;9.402;2023-02-23T16:03:37;12.50;;;7.38;;
15958;SDS011;8078;47.822;9.402;2023-02-23T16:06:20;12.38;;;7.65;;
15958;SDS011;8078;47.822;9.402;2023-02-23T16:11:59;15.90;;;8.45;;
15958;SDS011;8078;47.822;9.402;2023-02-23T16:14:33;16.33;;;8.10;;
15958;SDS011;8078;47.822;9.402;2023-02-23T16:17:06;13.68;;;7.05;;
15958;SDS011;8078;47.822;9.402;2023-02-23T16:22:53;15.50;;;8.77;;
15958;SDS011;8078;47.822;9.402;2023-02-23T16:25:20;16.63;;;8.32;;
15958;SDS011;8078;47.822;9.402;2023-02-23T16:27:56;15.67;;;8.50;;
15958;SDS011;8078;47.822;9.402;2023-02-23T16:33:08;16.47;;;9.30;;
15958;SDS011;8078;47.822;9.402;2023-02-23T16:35:43;14.03;;;9.30;;
15958;SDS011;8078;47.822;9.402;2023-02-23T16:38:12;16.33;;;9.10;;
15958;SDS011;8078;47.822;9.402;2023-02-23T16:40:44;17.73;;;8.70;;
15958;SDS011;8078;47.822;9.402;2023-02-23T16:43:12;14.37;;;9.13;;
15958;SDS011;8078;47.822;9.402;2023-02-23T16:45:39;18.13;;;8.87;;
15958;SDS011;8078;47.822;9.402;2023-02-23T16:48:16;16.63;;;9.10;;